Time,TemperatureF,DewpointF,PressureIn,WindDirection,WindDirectionDegrees,WindSpeedMPH,WindSpeedGustMPH,Humidity,HourlyPrecipIn,Conditions,Clouds,dailyrainin,SoftwareType,DateUTC
2015-04-19 00:04:00,67.1,17.9,29.09,NNE,22,4.9,5.8,15,0.00,,,0.00,VWS V15.00,2015-04-19 04:04:00,
2015-04-19 00:09:00,66.9,17.8,29.09,NE,45,3.6,4.9,15,0.00,,,0.00,VWS V15.00,2015-04-19 04:09:00,
2015-04-19 00:14:00,66.7,17.6,29.12,North,0,3.6,3.6,15,0.00,,,0.00,VWS V15.00,2015-04-19 04:14:00,
2015-04-19 00:19:00,66.7,17.6,29.12,NE,45,4.9,5.4,15,0.00,,,0.00,VWS V15.00,2015-04-19 04:19:00,
2015-04-19 00:24:00,66.9,17.8,29.12,NNE,22,6.3,6.3,15,0.00,,,0.00,VWS V15.00,2015-04-19 04:24:00,
2015-04-19 00:29:00,66.9,17.8,29.09,NE,45,3.6,7.2,15,0.00,,,0.00,VWS V15.00,2015-04-19 04:29:00,
2015-04-19 00:34:00,66.9,17.8,29.09,NNE,22,4.0,5.4,15,0.00,,,0.00,VWS V15.00,2015-04-19 04:34:00,
2015-04-19 00:39:00,66.9,17.8,29.09,NNE,22,3.8,3.8,15,0.00,,,0.00,VWS V15.00,2015-04-19 04:39:00,
2015-04-19 00:44:00,66.7,17.6,29.09,NE,45,2.9,3.8,15,0.00,,,0.00,VWS V15.00,2015-04-19 04:44:00,
2015-04-19 00:49:00,66.6,17.5,29.09,NE,45,6.0,6.0,15,0.00,,,0.00,VWS V15.00,2015-04-19 04:49:00,
2015-04-19 00:54:00,66.4,17.4,29.09,North,0,3.6,3.6,15,0.00,,,0.00,VWS V15.00,2015-04-19 04:54:00,
2015-04-19 00:59:00,66.0,17.1,29.09,NNE,22,4.3,4.3,15,0.00,,,0.00,VWS V15.00,2015-04-19 04:59:00,
2015-04-19 01:04:00,66.0,17.1,29.09,NE,45,5.4,5.4,15,0.00,,,0.00,VWS V15.00,2015-04-19 05:04:00,
2015-04-19 01:09:00,65.8,16.9,29.09,NE,45,2.5,4.0,15,0.00,,,0.00,VWS V15.00,2015-04-19 05:09:00,
2015-04-19 01:14:00,65.7,16.8,29.09,NE,45,4.9,5.4,15,0.00,,,0.00,VWS V15.00,2015-04-19 05:14:00,
2015-04-19 01:19:00,65.5,16.6,29.09,NE,45,4.0,4.0,15,0.00,,,0.00,VWS V15.00,2015-04-19 05:19:00,
2015-04-19 01:24:00,65.5,16.6,29.09,NNE,22,2.9,3.8,15,0.00,,,0.00,VWS V15.00,2015-04-19 05:24:00,
2015-04-19 01:29:00,65.1,16.4,29.09,North,0,4.0,4.0,15,0.00,,,0.00,VWS V15.00,2015-04-19 05:29:00,
2015-04-19 01:34:00,65.1,16.4,29.09,NE,45,3.4,3.8,15,0.00,,,0.00,VWS V15.00,2015-04-19 05:34:00,
2015-04-19 01:39:00,65.1,16.4,29.09,NNE,22,4.0,4.0,15,0.00,,,0.00,VWS V15.00,2015-04-19 05:39:00,
2015-04-19 01:44:00,65.1,16.4,29.09,NNE,22,4.0,4.0,15,0.00,,,0.00,VWS V15.00,2015-04-19 05:44:00,
2015-04-19 01:49:00,65.1,16.4,29.09,North,0,2.7,3.8,15,0.00,,,0.00,VWS V15.00,2015-04-19 05:49:00,
2015-04-19 01:54:00,65.1,16.4,29.09,NE,45,3.1,4.3,15,0.00,,,0.00,VWS V15.00,2015-04-19 05:54:00,
2015-04-19 01:59:00,65.1,16.4,29.09,NNE,22,5.4,5.4,15,0.00,,,0.00,VWS V15.00,2015-04-19 05:59:00,
2015-04-19 02:04:00,65.1,16.4,29.09,NE,45,4.0,4.0,15,0.00,,,0.00,VWS V15.00,2015-04-19 06:04:00,
2015-04-19 02:09:00,65.1,16.4,29.09,NNE,22,1.6,4.3,15,0.00,,,0.00,VWS V15.00,2015-04-19 06:09:00,
2015-04-19 02:14:00,65.1,16.4,29.09,NNE,22,1.6,3.8,15,0.00,,,0.00,VWS V15.00,2015-04-19 06:14:00,
2015-04-19 02:19:00,65.1,16.4,29.09,NNE,22,2.5,2.5,15,0.00,,,0.00,VWS V15.00,2015-04-19 06:19:00,
2015-04-19 02:24:00,65.1,16.4,29.09,NNE,22,3.6,6.3,15,0.00,,,0.00,VWS V15.00,2015-04-19 06:24:00,
2015-04-19 02:29:00,64.9,16.2,29.09,NNE,22,3.1,3.8,15,0.00,,,0.00,VWS V15.00,2015-04-19 06:29:00,
2015-04-19 02:34:00,64.8,16.1,29.09,NE,45,2.0,3.8,15,0.00,,,0.00,VWS V15.00,2015-04-19 06:34:00,
2015-04-19 02:39:00,64.8,16.1,29.09,NNE,22,3.6,4.7,15,0.00,,,0.00,VWS V15.00,2015-04-19 06:39:00,
2015-04-19 02:44:00,64.8,16.1,29.09,NNE,22,4.3,4.3,15,0.00,,,0.00,VWS V15.00,2015-04-19 06:44:00,
2015-04-19 02:49:00,64.6,15.9,29.09,NNE,22,4.9,4.9,15,0.00,,,0.00,VWS V15.00,2015-04-19 06:49:00,
2015-04-19 02:54:00,64.6,15.9,29.09,NE,45,2.0,2.5,15,0.00,,,0.00,VWS V15.00,2015-04-19 06:54:00,
2015-04-19 02:59:00,64.6,15.9,29.09,NNE,22,6.3,6.3,15,0.00,,,0.00,VWS V15.00,2015-04-19 06:59:00,
2015-04-19 03:04:00,64.4,15.8,29.09,NE,45,3.6,3.6,15,0.00,,,0.00,VWS V15.00,2015-04-19 07:04:00,
2015-04-19 03:09:00,64.0,17.0,29.09,NE,45,5.4,5.4,16,0.00,,,0.00,VWS V15.00,2015-04-19 07:09:00,
2015-04-19 03:14:00,64.0,17.0,29.09,NNE,22,4.3,4.3,16,0.00,,,0.00,VWS V15.00,2015-04-19 07:14:00,
2015-04-19 03:19:00,63.7,16.7,29.09,NNE,22,3.8,3.8,16,0.00,,,0.00,VWS V15.00,2015-04-19 07:19:00,
2015-04-19 03:24:00,63.9,16.8,29.09,NE,45,3.1,3.8,16,0.00,,,0.00,VWS V15.00,2015-04-19 07:24:00,
2015-04-19 03:29:00,63.7,16.7,29.06,NNE,22,5.8,5.8,16,0.00,,,0.00,VWS V15.00,2015-04-19 07:29:00,
2015-04-19 03:34:00,63.5,16.5,29.06,NNE,22,5.4,5.4,16,0.00,,,0.00,VWS V15.00,2015-04-19 07:34:00,
2015-04-19 03:39:00,63.3,16.4,29.06,NNE,22,3.4,3.8,16,0.00,,,0.00,VWS V15.00,2015-04-19 07:39:00,
2015-04-19 03:44:00,63.1,16.2,29.03,NNE,22,4.3,4.3,16,0.00,,,0.00,VWS V15.00,2015-04-19 07:44:00,
2015-04-19 03:49:00,63.1,16.2,29.03,NNE,22,4.9,6.5,16,0.00,,,0.00,VWS V15.00,2015-04-19 07:49:00,
2015-04-19 03:54:00,63.0,16.1,29.03,NNE,22,4.0,4.0,16,0.00,,,0.00,VWS V15.00,2015-04-19 07:54:00,
2015-04-19 03:59:00,63.0,16.1,29.03,NE,45,4.3,5.8,16,0.00,,,0.00,VWS V15.00,2015-04-19 07:59:00,
2015-04-19 04:09:00,62.6,15.8,29.03,NNE,22,6.0,6.0,16,0.00,,,0.00,VWS V15.00,2015-04-19 08:09:00,
2015-04-19 04:14:00,62.8,15.9,29.03,NNE,22,3.1,3.1,16,0.00,,,0.00,VWS V15.00,2015-04-19 08:14:00,
2015-04-19 04:19:00,62.6,15.8,29.03,NE,45,2.9,2.9,16,0.00,,,0.00,VWS V15.00,2015-04-19 08:19:00,
2015-04-19 04:24:00,62.6,15.8,29.03,NNE,22,6.0,6.5,16,0.00,,,0.00,VWS V15.00,2015-04-19 08:24:00,
2015-04-19 04:29:00,62.4,15.7,29.00,North,0,6.3,6.3,16,0.00,,,0.00,VWS V15.00,2015-04-19 08:29:00,
2015-04-19 04:34:00,62.4,15.7,29.00,NE,45,2.7,4.0,16,0.00,,,0.00,VWS V15.00,2015-04-19 08:34:00,
2015-04-19 04:39:00,62.1,15.4,29.00,NNE,22,1.6,3.4,16,0.00,,,0.00,VWS V15.00,2015-04-19 08:39:00,
2015-04-19 04:44:00,62.1,15.4,29.03,NNE,22,3.1,4.3,16,0.00,,,0.00,VWS V15.00,2015-04-19 08:44:00,
2015-04-19 04:49:00,62.1,15.4,29.03,NNE,22,5.6,5.6,16,0.00,,,0.00,VWS V15.00,2015-04-19 08:49:00,
2015-04-19 04:54:00,62.1,15.4,29.03,NNE,22,4.3,4.3,16,0.00,,,0.00,VWS V15.00,2015-04-19 08:54:00,
2015-04-19 05:04:00,62.1,15.4,29.03,NE,45,4.3,6.0,16,0.00,,,0.00,VWS V15.00,2015-04-19 09:04:00,
2015-04-19 05:09:00,62.2,15.5,29.03,NNE,22,2.9,3.6,16,0.00,,,0.00,VWS V15.00,2015-04-19 09:09:00,
2015-04-19 05:14:00,61.9,15.2,29.03,NNE,22,2.7,3.6,16,0.00,,,0.00,VWS V15.00,2015-04-19 09:14:00,
2015-04-19 05:19:00,61.9,15.2,29.03,NNE,22,3.8,3.8,16,0.00,,,0.00,VWS V15.00,2015-04-19 09:19:00,
2015-04-19 05:24:00,61.9,15.2,29.03,NE,45,2.9,3.4,16,0.00,,,0.00,VWS V15.00,2015-04-19 09:24:00,
2015-04-19 05:29:00,61.9,15.2,29.03,NNE,22,2.9,3.4,16,0.00,,,0.00,VWS V15.00,2015-04-19 09:29:00,
2015-04-19 05:34:00,61.9,15.2,29.03,NNE,22,4.7,4.7,16,0.00,,,0.00,VWS V15.00,2015-04-19 09:34:00,
2015-04-19 05:39:00,61.7,15.1,29.03,NNE,22,3.6,4.7,16,0.00,,,0.00,VWS V15.00,2015-04-19 09:39:00,
2015-04-19 05:44:00,61.5,14.9,29.03,NE,45,2.2,2.2,16,0.00,,,0.00,VWS V15.00,2015-04-19 09:44:00,
2015-04-19 05:49:00,61.5,14.9,29.03,NNE,22,3.1,4.3,16,0.00,,,0.00,VWS V15.00,2015-04-19 09:49:00,
2015-04-19 05:54:00,61.7,15.1,29.03,NNE,22,3.6,4.7,16,0.00,,,0.00,VWS V15.00,2015-04-19 09:54:00,
2015-04-19 05:59:00,61.3,14.8,29.00,NNE,22,3.1,3.1,16,0.00,,,0.00,VWS V15.00,2015-04-19 09:59:00,
2015-04-19 06:04:00,61.3,14.8,29.00,ENE,68,5.8,5.8,16,0.00,,,0.00,VWS V15.00,2015-04-19 10:04:00,
2015-04-19 06:09:00,61.3,14.8,29.00,NE,45,2.7,2.7,16,0.00,,,0.00,VWS V15.00,2015-04-19 10:09:00,
2015-04-19 06:14:00,61.3,14.8,29.00,NE,45,2.9,4.9,16,0.00,,,0.00,VWS V15.00,2015-04-19 10:14:00,
2015-04-19 06:19:00,61.3,14.8,29.00,NNW,338,3.6,3.6,16,0.00,,,0.00,VWS V15.00,2015-04-19 10:19:00,
2015-04-19 06:24:00,61.3,14.8,29.00,NNE,22,5.4,5.4,16,0.00,,,0.00,VWS V15.00,2015-04-19 10:24:00,
2015-04-19 06:29:00,61.3,14.8,29.00,NNE,22,2.7,3.6,16,0.00,,,0.00,VWS V15.00,2015-04-19 10:29:00,
2015-04-19 06:34:00,61.2,14.6,29.00,NNE,22,2.7,2.7,16,0.00,,,0.00,VWS V15.00,2015-04-19 10:34:00,
2015-04-19 06:39:00,61.0,14.5,29.00,NNE,22,3.1,3.1,16,0.00,,,0.00,VWS V15.00,2015-04-19 10:39:00,
2015-04-19 06:44:00,61.0,14.5,29.00,NE,45,5.4,5.4,16,0.00,,,0.00,VWS V15.00,2015-04-19 10:44:00,
2015-04-19 06:49:00,61.0,14.5,29.00,NNE,22,4.3,4.3,16,0.00,,,0.00,VWS V15.00,2015-04-19 10:49:00,
2015-04-19 06:54:00,61.2,14.6,29.00,NNE,22,3.4,6.5,16,0.00,,,0.00,VWS V15.00,2015-04-19 10:54:00,
2015-04-19 06:59:00,61.0,14.5,29.00,NE,45,3.1,3.1,16,0.00,,,0.00,VWS V15.00,2015-04-19 10:59:00,
2015-04-19 07:04:00,61.0,14.5,29.00,NNE,22,7.4,7.4,16,0.00,,,0.00,VWS V15.00,2015-04-19 11:04:00,
2015-04-19 07:09:00,61.0,14.5,29.00,NNE,22,3.1,3.1,16,0.00,,,0.00,VWS V15.00,2015-04-19 11:09:00,
2015-04-19 07:14:00,61.0,14.5,29.00,NE,45,5.4,5.4,16,0.00,,,0.00,VWS V15.00,2015-04-19 11:14:00,
2015-04-19 07:19:00,61.0,14.5,29.00,NNE,22,6.0,6.0,16,0.00,,,0.00,VWS V15.00,2015-04-19 11:19:00,
2015-04-19 07:24:00,61.0,14.5,29.00,NNE,22,3.4,3.4,16,0.00,,,0.00,VWS V15.00,2015-04-19 11:24:00,
2015-04-19 07:29:00,61.0,14.5,29.00,NE,45,4.7,5.8,16,0.00,,,0.00,VWS V15.00,2015-04-19 11:29:00,
2015-04-19 07:34:00,61.2,14.6,29.00,NE,45,3.8,3.8,16,0.00,,,0.00,VWS V15.00,2015-04-19 11:34:00,
2015-04-19 07:39:00,61.2,14.6,29.00,NE,45,3.8,3.8,16,0.00,,,0.00,VWS V15.00,2015-04-19 11:39:00,
2015-04-19 07:44:00,61.2,14.6,29.00,ENE,68,2.0,2.7,16,0.00,,,0.00,VWS V15.00,2015-04-19 11:44:00,
2015-04-19 07:49:00,61.2,14.6,29.00,NNE,22,6.0,6.0,16,0.00,,,0.00,VWS V15.00,2015-04-19 11:49:00,
2015-04-19 07:54:00,61.3,14.8,29.00,NNE,22,3.1,4.3,16,0.00,,,0.00,VWS V15.00,2015-04-19 11:54:00,
2015-04-19 07:59:00,61.3,14.8,29.00,NE,45,1.6,1.6,16,0.00,,,0.00,VWS V15.00,2015-04-19 11:59:00,
2015-04-19 08:04:00,61.3,14.8,29.00,NNE,22,3.8,4.3,16,0.00,,,0.00,VWS V15.00,2015-04-19 12:04:00,
2015-04-19 08:09:00,61.3,14.8,29.00,NNE,22,3.8,4.9,16,0.00,,,0.00,VWS V15.00,2015-04-19 12:09:00,
2015-04-19 08:14:00,61.3,14.8,28.97,NE,45,2.2,4.3,16,0.00,,,0.00,VWS V15.00,2015-04-19 12:14:00,
2015-04-19 08:19:00,61.5,14.9,28.97,NNE,22,3.4,5.4,16,0.00,,,0.00,VWS V15.00,2015-04-19 12:19:00,
2015-04-19 08:24:00,61.7,15.1,28.97,NE,45,2.7,3.1,16,0.00,,,0.00,VWS V15.00,2015-04-19 12:24:00,
2015-04-19 08:29:00,61.9,15.2,28.97,ENE,68,0.0,2.2,16,0.00,,,0.00,VWS V15.00,2015-04-19 12:29:00,
2015-04-19 08:34:00,62.1,15.4,28.97,SE,135,2.0,2.7,16,0.00,,,0.00,VWS V15.00,2015-04-19 12:34:00,
2015-04-19 08:39:00,62.2,15.5,28.97,NE,45,2.2,2.7,16,0.00,,,0.00,VWS V15.00,2015-04-19 12:39:00,
2015-04-19 08:44:00,62.4,15.7,28.97,NE,45,2.5,2.7,16,0.00,,,0.00,VWS V15.00,2015-04-19 12:44:00,
2015-04-19 08:49:00,62.8,15.9,28.97,SE,135,2.5,4.0,16,0.00,,,0.00,VWS V15.00,2015-04-19 12:49:00,
2015-04-19 08:54:00,63.1,16.2,28.97,ENE,68,1.3,2.0,16,0.00,,,0.00,VWS V15.00,2015-04-19 12:54:00,
2015-04-19 08:59:00,63.3,16.4,28.97,East,90,1.1,2.5,16,0.00,,,0.00,VWS V15.00,2015-04-19 12:59:00,
2015-04-19 09:04:00,63.5,16.5,28.97,East,90,1.3,3.4,16,0.00,,,0.00,VWS V15.00,2015-04-19 13:04:00,
2015-04-19 09:09:00,63.7,16.7,28.97,ESE,112,1.3,2.9,16,0.00,,,0.00,VWS V15.00,2015-04-19 13:09:00,
2015-04-19 09:14:00,63.7,16.7,28.97,East,90,1.3,3.6,16,0.00,,,0.00,VWS V15.00,2015-04-19 13:14:00,
2015-04-19 09:24:00,63.9,16.8,28.97,NNE,22,4.0,5.6,16,0.00,,,0.00,VWS V15.00,2015-04-19 13:24:00,
2015-04-19 09:29:00,64.0,17.0,28.97,NNE,22,1.6,2.0,16,0.00,,,0.00,VWS V15.00,2015-04-19 13:29:00,
2015-04-19 09:34:00,64.2,17.1,28.97,North,0,2.7,5.4,16,0.00,,,0.00,VWS V15.00,2015-04-19 13:34:00,
2015-04-19 09:39:00,64.2,17.1,28.97,ESE,112,2.7,6.3,16,0.00,,,0.00,VWS V15.00,2015-04-19 13:39:00,
2015-04-19 09:44:00,64.2,17.1,28.97,ESE,112,5.8,7.4,16,0.00,,,0.00,VWS V15.00,2015-04-19 13:44:00,
2015-04-19 09:49:00,64.4,15.8,28.97,SSW,202,2.5,3.8,15,0.00,,,0.00,VWS V15.00,2015-04-19 13:49:00,
2015-04-19 09:54:00,64.6,15.9,28.97,NNE,22,2.5,3.4,15,0.00,,,0.00,VWS V15.00,2015-04-19 13:54:00,
2015-04-19 09:59:00,64.8,16.1,28.94,ESE,112,2.5,4.3,15,0.00,,,0.00,VWS V15.00,2015-04-19 13:59:00,
2015-04-19 10:04:00,64.8,16.1,28.94,SE,135,2.7,3.1,15,0.00,,,0.00,VWS V15.00,2015-04-19 14:04:00,
2015-04-19 10:09:00,64.6,15.9,28.94,East,90,2.0,3.8,15,0.00,,,0.00,VWS V15.00,2015-04-19 14:09:00,
2015-04-19 10:14:00,64.2,17.1,28.94,SE,135,4.9,9.8,16,0.00,,,0.00,VWS V15.00,2015-04-19 14:14:00,
2015-04-19 10:19:00,63.7,16.7,28.94,SSE,158,3.8,3.8,16,0.00,,,0.00,VWS V15.00,2015-04-19 14:19:00,
2015-04-19 10:24:00,63.5,16.5,28.94,SE,135,2.7,6.3,16,0.00,,,0.00,VWS V15.00,2015-04-19 14:24:00,
2015-04-19 10:29:00,63.1,16.2,28.97,SSE,158,3.1,4.3,16,0.00,,,0.00,VWS V15.00,2015-04-19 14:29:00,
2015-04-19 10:34:00,63.0,16.1,28.97,SE,135,6.3,6.3,16,0.00,,,0.00,VWS V15.00,2015-04-19 14:34:00,
2015-04-19 10:39:00,62.8,15.9,28.97,NNE,22,2.7,5.8,16,0.00,,,0.00,VWS V15.00,2015-04-19 14:39:00,
2015-04-19 10:44:00,62.6,15.8,28.97,East,90,1.6,2.2,16,0.00,,,0.00,VWS V15.00,2015-04-19 14:44:00,
2015-04-19 10:49:00,62.6,15.8,28.97,ESE,112,1.6,2.7,16,0.00,,,0.00,VWS V15.00,2015-04-19 14:49:00,
2015-04-19 10:54:00,62.6,15.8,28.97,NE,45,3.4,3.4,16,0.00,,,0.00,VWS V15.00,2015-04-19 14:54:00,
2015-04-19 10:59:00,62.6,15.8,28.97,ESE,112,2.7,3.8,16,0.00,,,0.00,VWS V15.00,2015-04-19 14:59:00,
2015-04-19 11:04:00,62.4,15.7,28.97,East,90,4.7,4.7,16,0.00,,,0.00,VWS V15.00,2015-04-19 15:04:00,
2015-04-19 11:09:00,62.2,15.5,28.97,SSE,158,2.0,3.8,16,0.00,,,0.00,VWS V15.00,2015-04-19 15:09:00,
2015-04-19 11:14:00,61.9,15.2,28.97,NNE,22,2.0,2.5,16,0.00,,,0.00,VWS V15.00,2015-04-19 15:14:00,
2015-04-19 11:19:00,61.7,15.1,28.97,ESE,112,5.4,6.3,16,0.00,,,0.00,VWS V15.00,2015-04-19 15:19:00,
2015-04-19 11:24:00,61.5,14.9,28.97,East,90,0.0,1.3,16,0.00,,,0.00,VWS V15.00,2015-04-19 15:24:00,
2015-04-19 11:29:00,61.5,14.9,28.94,SSE,158,2.9,3.4,16,0.00,,,0.00,VWS V15.00,2015-04-19 15:29:00,
2015-04-19 11:34:00,61.7,15.1,28.94,South,180,2.0,2.7,16,0.00,,,0.00,VWS V15.00,2015-04-19 15:34:00,
2015-04-19 11:39:00,61.5,14.9,28.94,ESE,112,3.4,3.4,16,0.00,,,0.00,VWS V15.00,2015-04-19 15:39:00,
2015-04-19 11:44:00,61.7,15.1,28.94,North,0,3.1,3.1,16,0.00,,,0.00,VWS V15.00,2015-04-19 15:44:00,
2015-04-19 11:49:00,61.7,15.1,28.94,East,90,2.7,2.7,16,0.00,,,0.00,VWS V15.00,2015-04-19 15:49:00,
2015-04-19 11:54:00,61.9,15.2,28.94,SE,135,2.7,4.0,16,0.00,,,0.00,VWS V15.00,2015-04-19 15:54:00,
2015-04-19 11:59:00,62.1,19.3,28.91,ESE,112,4.0,4.3,19,0.00,,,0.00,VWS V15.00,2015-04-19 15:59:00,
2015-04-19 12:04:00,62.2,19.5,28.91,East,90,2.0,2.0,19,0.00,,,0.00,VWS V15.00,2015-04-19 16:04:00,
2015-04-19 12:09:00,62.4,19.6,28.91,ENE,68,3.1,4.0,19,0.04,,,0.04,VWS V15.00,2015-04-19 16:09:00,
2015-04-19 12:14:00,62.6,22.1,28.91,North,0,2.5,5.6,21,0.04,,,0.04,VWS V15.00,2015-04-19 16:14:00,
2015-04-19 12:19:00,62.6,22.1,28.91,SE,135,3.1,4.0,21,0.04,,,0.04,VWS V15.00,2015-04-19 16:19:00,
2015-04-19 12:24:00,63.0,24.6,28.91,SSE,158,4.0,7.8,23,0.04,,,0.04,VWS V15.00,2015-04-19 16:24:00,
2015-04-19 12:29:00,63.1,24.8,28.88,ESE,112,3.8,5.6,23,0.04,,,0.04,VWS V15.00,2015-04-19 16:29:00,
2015-04-19 12:34:00,63.7,26.2,28.88,NE,45,4.0,4.0,24,0.04,,,0.04,VWS V15.00,2015-04-19 16:34:00,
2015-04-19 12:39:00,63.9,26.4,28.88,NNE,22,3.6,3.6,24,0.04,,,0.04,VWS V15.00,2015-04-19 16:39:00,
2015-04-19 12:44:00,64.0,26.5,28.88,NNE,22,1.6,4.9,24,0.04,,,0.04,VWS V15.00,2015-04-19 16:44:00,
2015-04-19 12:49:00,64.4,25.8,28.88,SSW,202,4.3,4.3,23,0.04,,,0.04,VWS V15.00,2015-04-19 16:49:00,
2015-04-19 12:54:00,64.2,26.7,28.88,East,90,2.5,3.6,24,0.04,,,0.04,VWS V15.00,2015-04-19 16:54:00,
2015-04-19 12:59:00,64.2,26.7,28.88,NNW,338,5.4,6.5,24,0.04,,,0.04,VWS V15.00,2015-04-19 16:59:00,
2015-04-19 13:04:00,64.2,25.7,28.88,SE,135,1.6,2.9,23,0.04,,,0.04,VWS V15.00,2015-04-19 17:04:00,
2015-04-19 13:09:00,64.2,25.7,28.88,ESE,112,2.0,2.7,23,0.00,,,0.04,VWS V15.00,2015-04-19 17:09:00,
2015-04-19 13:14:00,64.0,26.5,28.85,East,90,3.1,3.8,24,0.00,,,0.04,VWS V15.00,2015-04-19 17:14:00,
2015-04-19 13:19:00,64.0,26.5,28.85,SE,135,3.1,6.0,24,0.00,,,0.04,VWS V15.00,2015-04-19 17:19:00,
2015-04-19 13:24:00,64.2,26.7,28.85,SSE,158,2.9,4.3,24,0.00,,,0.04,VWS V15.00,2015-04-19 17:24:00,
2015-04-19 13:29:00,64.2,26.7,28.85,ENE,68,6.3,6.3,24,0.00,,,0.04,VWS V15.00,2015-04-19 17:29:00,
2015-04-19 13:34:00,64.0,26.5,28.85,East,90,3.1,3.6,24,0.00,,,0.04,VWS V15.00,2015-04-19 17:34:00,
2015-04-19 13:39:00,64.0,26.5,28.85,NNE,22,2.9,6.3,24,0.00,,,0.04,VWS V15.00,2015-04-19 17:39:00,
2015-04-19 13:44:00,64.4,25.8,28.85,SSE,158,5.6,5.6,23,0.00,,,0.04,VWS V15.00,2015-04-19 17:44:00,
2015-04-19 13:49:00,64.8,26.1,28.85,NE,45,2.9,6.3,23,0.00,,,0.04,VWS V15.00,2015-04-19 17:49:00,
2015-04-19 13:54:00,65.1,26.4,28.85,East,90,7.2,7.2,23,0.00,,,0.04,VWS V15.00,2015-04-19 17:54:00,
2015-04-19 13:59:00,65.1,26.4,28.85,ENE,68,4.3,5.4,23,0.00,,,0.04,VWS V15.00,2015-04-19 17:59:00,
2015-04-19 14:03:00,65.5,26.7,28.85,East,90,10.5,10.5,23,0.00,,,0.04,VWS V15.00,2015-04-19 18:03:00,
2015-04-19 14:09:00,65.7,26.9,28.85,West,270,5.8,6.0,23,0.00,,,0.04,VWS V15.00,2015-04-19 18:09:00,
2015-04-19 14:13:00,65.5,23.4,28.82,East,90,3.4,5.4,20,0.00,,,0.04,VWS V15.00,2015-04-19 18:13:00,
2015-04-19 14:19:00,65.3,23.2,28.82,SE,135,7.2,7.2,20,0.00,,,0.04,VWS V15.00,2015-04-19 18:19:00,
2015-04-19 14:24:00,65.3,23.2,28.82,NNE,22,3.6,4.9,20,0.00,,,0.04,VWS V15.00,2015-04-19 18:24:00,
2015-04-19 14:28:00,65.1,26.4,28.79,SE,135,3.4,4.7,23,0.05,,,0.09,VWS V15.00,2015-04-19 18:28:00,
2015-04-19 14:33:00,64.6,26.0,28.79,SE,135,3.8,8.5,23,0.05,,,0.09,VWS V15.00,2015-04-19 18:33:00,
2015-04-19 14:38:00,64.2,25.7,28.79,East,90,9.8,9.8,23,0.05,,,0.09,VWS V15.00,2015-04-19 18:38:00,